首页
METAR-TAF:

METAR-TAF

机场 :

谢列梅捷沃国际机场

莫斯科舍列梅季耶夫, 俄罗斯

纬度: 55-58N, 经度: 037-25E, 海拔: 190米

当前天气观测

该预报发布于16分钟前的08:30 UTC
风速6节,风向西转西南,在南转南东西北之间变化
温度 21°C
湿度 49%
气压 1015 hPa
能见度10公里或以上
少量云层高于4400英尺

METAR: UUEE 140830Z 25003MPS 150V320 9999 FEW044 21/10 Q1015 R24C/CLRD62 NOSIG

时间: 11:46 (08:46 UTC)

预报

该预报发布于46分钟前的08:00 UTC
预报有效从14日的 09点(UTC)到 15日的 09点(UTC)
风速8节,风向西转西南
能见度10公里或以上
散云层高于3000英尺
成为
从 14日的 17点(UTC)到 14日的 19点(UTC)
风速6节,风向
成为
从 15日的 06点(UTC)到 15日的 08点(UTC)
风速16节,风向南转西南

TAF: UUEE 140800Z 1409/1509 25004MPS 9999 SCT030 TX25/1412Z TN13/1502Z BECMG 1417/1419 18003MPS BECMG 1506/1508 20008MPS

超过4000个机场的气象观测和天气预报(METAR&TAF报告)。

可查询的气象台以黄色和红色小点在地图上表示。

将鼠标移到小点上方,可查看气象台名称。

然后点击查看天气观测和预报。

如需切换地图:点击带黑十字的绿色按钮放大地图;点击带横线的绿色按钮缩小地图;或者点击绿色箭头查看邻近地区的地图。


METAR-TAF: